createdAt,value
2022-11-29T00:02:20.915Z,8.81
2022-11-29T00:04:48.707Z,8.67
2022-11-29T00:07:16.553Z,8.58
2022-11-29T00:09:45.723Z,8.40
2022-11-29T00:12:13.514Z,8.38
2022-11-29T00:14:41.636Z,8.32
2022-11-29T00:17:09.705Z,8.48
2022-11-29T00:19:38.155Z,8.77
2022-11-29T00:22:06.217Z,8.66
2022-11-29T00:24:34.594Z,8.59
2022-11-29T00:27:03.983Z,8.58
2022-11-29T00:29:31.859Z,8.81
2022-11-29T00:31:59.980Z,8.93
2022-11-29T00:34:27.759Z,8.99
2022-11-29T00:36:55.445Z,9.00
2022-11-29T00:39:23.276Z,8.98
2022-11-29T00:41:51.064Z,9.08
2022-11-29T00:44:20.821Z,9.20
2022-11-29T00:46:49.762Z,9.13
2022-11-29T00:49:17.940Z,9.05
2022-11-29T00:51:45.823Z,8.93
2022-11-29T00:54:13.632Z,8.86
2022-11-29T00:56:41.424Z,8.71
2022-11-29T00:59:09.168Z,8.70
2022-11-29T01:01:38.267Z,8.71
2022-11-29T01:04:06.276Z,8.94
2022-11-29T01:06:34.118Z,8.95
2022-11-29T01:09:01.874Z,8.86
2022-11-29T01:11:30.123Z,8.97
2022-11-29T01:14:00.516Z,9.15
2022-11-29T01:16:29.992Z,9.06
2022-11-29T01:18:59.177Z,9.18
2022-11-29T01:21:27.194Z,9.07
2022-11-29T01:23:55.804Z,9.10
2022-11-29T01:26:26.352Z,9.08
2022-11-29T01:28:56.168Z,9.19
2022-11-29T01:31:26.185Z,9.16
2022-11-29T01:33:55.102Z,9.18
2022-11-29T01:36:24.872Z,9.23
2022-11-29T01:38:52.959Z,9.22
2022-11-29T01:41:22.855Z,9.19
2022-11-29T01:43:56.362Z,9.17
2022-11-29T01:46:23.940Z,8.97
2022-11-29T01:48:55.686Z,8.81
2022-11-29T01:51:25.999Z,8.78
2022-11-29T01:53:54.693Z,8.89
2022-11-29T01:56:22.907Z,8.90
2022-11-29T01:58:50.740Z,8.91
2022-11-29T02:01:18.732Z,9.01
2022-11-29T02:03:46.528Z,9.08
2022-11-29T02:06:15.171Z,9.15
2022-11-29T02:08:44.790Z,9.23
2022-11-29T02:11:57.487Z,9.31
2022-11-29T02:14:37.867Z,9.27
2022-11-29T02:17:20.373Z,9.11
2022-11-29T02:20:10.188Z,9.05
2022-11-29T02:22:43.417Z,9.18
2022-11-29T02:25:32.401Z,9.23
2022-11-29T02:28:39.050Z,9.27
2022-11-29T02:31:34.307Z,9.35
2022-11-29T02:34:21.812Z,9.38
2022-11-29T02:37:11.267Z,9.38
2022-11-29T02:40:01.821Z,9.37
2022-11-29T02:43:05.374Z,9.38
2022-11-29T02:45:45.215Z,9.26
2022-11-29T02:48:28.927Z,9.32
2022-11-29T02:51:02.656Z,9.23
2022-11-29T02:53:37.237Z,9.34
2022-11-29T02:56:14.672Z,9.51
2022-11-29T02:58:51.009Z,9.69
2022-11-29T03:01:25.985Z,9.66
2022-11-29T03:04:02.348Z,9.64
2022-11-29T03:06:39.716Z,9.57
2022-11-29T03:09:15.263Z,9.43
2022-11-29T03:11:49.557Z,9.54
2022-11-29T03:14:25.227Z,9.31
2022-11-29T03:17:02.968Z,8.97
2022-11-29T03:19:41.201Z,8.89
2022-11-29T03:22:18.429Z,9.10
2022-11-29T03:24:53.308Z,9.00
2022-11-29T03:27:28.340Z,9.20
2022-11-29T03:30:00.636Z,9.35
2022-11-29T03:32:34.644Z,9.41
2022-11-29T03:35:07.919Z,9.30
2022-11-29T03:37:46.627Z,9.49
2022-11-29T03:40:18.955Z,9.57
2022-11-29T03:42:54.158Z,9.52
2022-11-29T03:45:26.769Z,9.77
2022-11-29T03:48:00.721Z,9.61
2022-11-29T03:50:34.408Z,9.77
2022-11-29T03:53:09.089Z,9.82
2022-11-29T03:55:50.491Z,9.79
2022-11-29T03:58:47.476Z,9.73
2022-11-29T04:01:44.692Z,9.78
2022-11-29T04:04:47.745Z,9.46
2022-11-29T04:07:35.023Z,9.60
2022-11-29T04:10:18.528Z,9.51
2022-11-29T04:13:18.943Z,9.28
2022-11-29T04:16:11.749Z,9.77
2022-11-29T04:19:26.738Z,9.97
2022-11-29T04:22:18.067Z,9.73
2022-11-29T04:25:19.207Z,9.88
2022-11-29T04:28:11.778Z,10.10
2022-11-29T04:30:49.171Z,10.02
2022-11-29T04:33:49.292Z,9.94
2022-11-29T04:36:49.959Z,9.83
2022-11-29T04:39:32.290Z,9.96
2022-11-29T04:42:25.258Z,10.04
2022-11-29T04:45:11.777Z,10.10
2022-11-29T04:47:56.557Z,10.04
2022-11-29T04:50:40.005Z,9.98
2022-11-29T04:53:28.969Z,10.04
2022-11-29T04:56:07.364Z,10.14
2022-11-29T04:58:42.077Z,10.24
2022-11-29T05:01:19.812Z,10.28
2022-11-29T05:03:57.212Z,10.43
2022-11-29T05:06:33.730Z,10.47
2022-11-29T05:09:12.037Z,10.33
2022-11-29T05:11:56.451Z,10.31
2022-11-29T05:14:37.048Z,10.12
2022-11-29T05:17:32.624Z,9.85
2022-11-29T05:20:09.361Z,9.66
2022-11-29T05:22:43.633Z,9.46
2022-11-29T05:25:41.141Z,9.49
2022-11-29T05:28:17.243Z,9.31
2022-11-29T05:31:19.979Z,9.20
2022-11-29T05:34:06.772Z,9.23
2022-11-29T05:36:42.029Z,9.39
2022-11-29T05:39:36.205Z,9.45
2022-11-29T05:42:18.989Z,9.70
2022-11-29T05:44:52.056Z,9.80
2022-11-29T05:47:31.049Z,9.77
2022-11-29T05:50:06.884Z,9.73
2022-11-29T05:52:46.072Z,9.66
2022-11-29T05:55:26.188Z,9.50
2022-11-29T05:57:59.588Z,9.29
2022-11-29T06:00:30.528Z,9.38
2022-11-29T06:03:04.706Z,9.41
2022-11-29T06:05:39.523Z,9.36
2022-11-29T06:08:14.073Z,9.59
2022-11-29T06:10:57.084Z,9.67
2022-11-29T06:13:37.971Z,9.72
2022-11-29T06:16:27.960Z,9.72
2022-11-29T06:19:30.442Z,9.80
2022-11-29T06:22:13.368Z,9.60
2022-11-29T06:25:03.395Z,9.31
2022-11-29T06:27:52.876Z,9.22
2022-11-29T06:30:23.791Z,9.19
2022-11-29T06:33:01.248Z,9.14
2022-11-29T06:35:40.791Z,9.12
2022-11-29T06:38:18.882Z,9.17
2022-11-29T06:40:47.157Z,8.95
2022-11-29T06:43:15.747Z,9.08
2022-11-29T06:45:50.043Z,9.18
2022-11-29T06:48:24.142Z,9.28
2022-11-29T06:50:59.296Z,9.23
2022-11-29T06:53:40.312Z,9.15
2022-11-29T06:56:20.573Z,9.14
2022-11-29T06:58:58.401Z,9.14
2022-11-29T07:01:37.252Z,8.99
2022-11-29T07:04:21.176Z,8.93
2022-11-29T07:06:48.914Z,8.93
2022-11-29T07:09:20.785Z,8.89
2022-11-29T07:11:49.433Z,8.88
2022-11-29T07:14:17.807Z,8.82
2022-11-29T07:16:57.175Z,8.83
2022-11-29T07:19:35.892Z,8.79
2022-11-29T07:22:10.664Z,8.84
2022-11-29T07:24:56.172Z,8.70
2022-11-29T07:27:32.140Z,8.74
2022-11-29T07:30:11.089Z,8.79
2022-11-29T07:32:52.871Z,8.87
2022-11-29T07:35:33.736Z,8.90
2022-11-29T07:38:13.151Z,8.84
2022-11-29T07:40:48.916Z,8.74
2022-11-29T07:43:36.561Z,8.52
2022-11-29T07:46:04.672Z,8.74
2022-11-29T07:48:32.447Z,8.94
2022-11-29T07:51:01.482Z,9.10
2022-11-29T07:53:30.299Z,9.24
2022-11-29T07:55:59.720Z,9.22
2022-11-29T07:58:27.416Z,9.51
2022-11-29T08:00:55.220Z,9.63
2022-11-29T08:03:23.032Z,9.82
2022-11-29T08:05:50.739Z,9.82
2022-11-29T08:08:18.565Z,9.93
2022-11-29T08:10:46.364Z,9.76
2022-11-29T08:13:15.791Z,9.82
2022-11-29T08:15:47.656Z,9.90
2022-11-29T08:18:15.455Z,10.11
2022-11-29T08:20:44.269Z,10.19
2022-11-29T08:23:14.057Z,9.96
2022-11-29T08:25:42.144Z,10.00
2022-11-29T08:28:10.433Z,9.98
2022-11-29T08:30:39.614Z,9.99
2022-11-29T08:33:07.509Z,10.10
2022-11-29T08:35:36.076Z,10.22
2022-11-29T08:38:04.937Z,10.21
2022-11-29T08:40:32.772Z,10.22
2022-11-29T08:43:00.641Z,10.15
2022-11-29T08:45:28.374Z,10.21
2022-11-29T08:47:57.516Z,10.16
2022-11-29T08:50:25.646Z,10.27
2022-11-29T08:53:10.746Z,10.34
2022-11-29T08:55:43.238Z,10.44
2022-11-29T08:58:13.899Z,10.61
2022-11-29T09:00:44.014Z,10.61
2022-11-29T09:03:27.262Z,10.69
2022-11-29T09:05:55.301Z,10.72
2022-11-29T09:08:23.157Z,10.75
2022-11-29T09:10:50.866Z,10.89
2022-11-29T09:13:19.047Z,10.97
2022-11-29T09:15:46.729Z,11.07
2022-11-29T09:18:15.805Z,11.04
2022-11-29T09:20:44.689Z,11.03
2022-11-29T09:23:13.054Z,11.01
2022-11-29T09:25:40.747Z,11.13
2022-11-29T09:28:08.553Z,11.36
2022-11-29T09:30:38.064Z,11.54
2022-11-29T09:33:05.994Z,11.75
2022-11-29T09:35:35.207Z,11.82
2022-11-29T09:38:03.081Z,12.03
2022-11-29T09:40:38.386Z,12.09
2022-11-29T09:43:18.808Z,12.20
2022-11-29T09:45:50.804Z,12.16
2022-11-29T09:48:36.799Z,12.25
2022-11-29T09:51:17.996Z,12.16
2022-11-29T09:54:01.833Z,12.04
2022-11-29T09:56:36.654Z,12.13
2022-11-29T09:59:10.019Z,12.08
2022-11-29T10:01:42.376Z,12.00
2022-11-29T10:04:15.133Z,12.14
2022-11-29T10:06:49.640Z,12.13
2022-11-29T10:09:23.910Z,12.01
2022-11-29T10:12:01.427Z,11.87
2022-11-29T10:14:35.294Z,12.16
2022-11-29T10:17:08.234Z,12.14
2022-11-29T10:19:39.205Z,12.34
2022-11-29T10:22:18.901Z,12.53
2022-11-29T10:24:49.980Z,12.28
2022-11-29T10:27:23.056Z,11.94
2022-11-29T10:29:51.558Z,12.38
2022-11-29T10:32:21.318Z,12.06
2022-11-29T10:34:49.441Z,12.26
2022-11-29T10:37:20.373Z,11.91
2022-11-29T10:39:51.885Z,12.13
2022-11-29T10:42:45.438Z,12.37
2022-11-29T10:45:18.885Z,12.26
2022-11-29T10:47:47.615Z,12.43
2022-11-29T10:50:20.120Z,12.57
2022-11-29T10:52:49.219Z,12.33
2022-11-29T10:55:19.012Z,12.30
2022-11-29T10:58:10.216Z,12.31
2022-11-29T11:00:52.010Z,12.38
2022-11-29T11:03:28.310Z,12.57
2022-11-29T11:05:59.492Z,12.68
2022-11-29T11:08:29.654Z,12.44
2022-11-29T11:11:01.784Z,12.68
2022-11-29T11:13:32.649Z,12.94
2022-11-29T11:16:09.792Z,12.51
2022-11-29T11:18:38.492Z,12.74
2022-11-29T11:21:10.344Z,12.58
2022-11-29T11:23:46.527Z,12.54
2022-11-29T11:26:15.973Z,12.74
2022-11-29T11:28:50.005Z,12.54
2022-11-29T11:31:31.291Z,12.51
2022-11-29T11:34:24.959Z,12.83
2022-11-29T11:36:53.477Z,13.15
2022-11-29T11:39:24.270Z,13.35
2022-11-29T11:42:10.590Z,13.30
2022-11-29T11:44:48.670Z,13.32
2022-11-29T11:47:19.367Z,12.88
2022-11-29T11:49:50.191Z,13.09
2022-11-29T11:52:22.091Z,13.34
2022-11-29T11:54:54.425Z,13.61
2022-11-29T11:57:23.676Z,13.69
2022-11-29T11:59:53.599Z,13.80
2022-11-29T12:02:30.011Z,13.76
2022-11-29T12:05:01.672Z,13.95
2022-11-29T12:08:06.335Z,13.89
2022-11-29T12:10:28.035Z,13.98
2022-11-29T12:12:56.851Z,13.97
2022-11-29T12:15:29.502Z,14.02
2022-11-29T12:18:02.617Z,14.01
2022-11-29T12:20:33.803Z,14.07
2022-11-29T12:23:20.483Z,14.28
2022-11-29T12:25:54.597Z,14.50
2022-11-29T12:28:26.304Z,14.32
2022-11-29T12:30:59.942Z,14.65
2022-11-29T12:33:38.621Z,14.74
2022-11-29T12:36:20.570Z,14.98
2022-11-29T12:39:00.837Z,14.74
2022-11-29T12:41:41.065Z,14.85
2022-11-29T12:44:23.096Z,14.44
2022-11-29T12:47:34.133Z,14.95
2022-11-29T12:50:05.330Z,15.13
2022-11-29T12:52:42.097Z,15.25
2022-11-29T12:55:22.099Z,14.91
2022-11-29T12:58:00.733Z,14.92
2022-11-29T13:00:33.930Z,14.89
2022-11-29T13:03:13.994Z,14.72
2022-11-29T13:05:56.970Z,14.72
2022-11-29T13:08:46.984Z,14.78
2022-11-29T13:11:21.037Z,14.89
2022-11-29T13:14:13.772Z,15.17
2022-11-29T13:16:57.181Z,15.01
2022-11-29T13:19:30.347Z,15.05
2022-11-29T13:22:05.763Z,15.09
2022-11-29T13:24:42.713Z,15.07
2022-11-29T13:27:17.227Z,14.98
2022-11-29T13:29:47.368Z,15.08
2022-11-29T13:32:32.511Z,14.83
2022-11-29T13:35:06.890Z,15.24
2022-11-29T13:37:39.936Z,15.24
2022-11-29T13:40:22.791Z,15.07
2022-11-29T13:43:01.156Z,15.39
2022-11-29T13:45:38.543Z,15.08
2022-11-29T13:48:34.592Z,15.50
2022-11-29T13:51:28.438Z,15.77
2022-11-29T13:53:57.439Z,15.61
2022-11-29T13:56:36.830Z,15.50
2022-11-29T13:59:13.730Z,15.07
2022-11-29T14:01:48.609Z,15.00
2022-11-29T14:04:25.963Z,15.29
2022-11-29T14:07:05.389Z,15.51
2022-11-29T14:09:37.528Z,15.36
2022-11-29T14:12:19.086Z,14.45
2022-11-29T14:14:53.426Z,14.91
2022-11-29T14:17:47.600Z,14.96
2022-11-29T14:20:48.658Z,14.83
2022-11-29T14:23:31.400Z,14.54
2022-11-29T14:26:28.646Z,14.40
2022-11-29T14:28:57.001Z,14.36
2022-11-29T14:31:56.466Z,14.47
2022-11-29T14:34:45.928Z,14.68
2022-11-29T14:37:52.459Z,15.01
2022-11-29T14:40:28.610Z,14.71
2022-11-29T14:42:56.436Z,14.64
2022-11-29T14:45:28.244Z,14.55
2022-11-29T14:47:56.808Z,14.62
2022-11-29T14:50:37.601Z,14.72
2022-11-29T14:53:06.878Z,14.53
2022-11-29T14:55:36.811Z,14.31
2022-11-29T14:58:19.279Z,14.60
2022-11-29T15:01:10.883Z,14.58
2022-11-29T15:03:48.848Z,14.62
2022-11-29T15:06:25.760Z,14.48
2022-11-29T15:09:03.809Z,14.04
2022-11-29T15:11:44.289Z,14.21
2022-11-29T15:14:20.941Z,14.46
2022-11-29T15:17:17.362Z,14.63
2022-11-29T15:19:59.344Z,14.65
2022-11-29T15:22:32.628Z,14.52
2022-11-29T15:25:03.340Z,14.48
2022-11-29T15:27:31.233Z,14.41
2022-11-29T15:29:59.877Z,14.36
2022-11-29T15:32:31.058Z,14.33
2022-11-29T15:34:59.828Z,14.18
2022-11-29T15:37:44.545Z,14.07
2022-11-29T15:40:15.997Z,14.02
2022-11-29T15:42:45.872Z,13.98
2022-11-29T15:45:28.795Z,14.01
2022-11-29T15:48:11.308Z,13.85
2022-11-29T15:50:41.856Z,13.73
2022-11-29T15:53:19.272Z,13.53
2022-11-29T15:55:49.848Z,13.42
2022-11-29T15:58:19.074Z,13.44
2022-11-29T16:00:49.864Z,13.36
2022-11-29T16:03:22.635Z,13.19
2022-11-29T16:05:57.034Z,13.03
2022-11-29T16:08:27.628Z,12.84
2022-11-29T16:10:55.776Z,12.64
2022-11-29T16:13:40.613Z,12.58
2022-11-29T16:16:14.323Z,12.53
2022-11-29T16:18:44.856Z,12.28
2022-11-29T16:21:28.835Z,12.10
2022-11-29T16:23:59.081Z,12.07
2022-11-29T16:26:30.372Z,12.00
2022-11-29T16:28:58.360Z,11.98
2022-11-29T16:31:34.182Z,11.85
2022-11-29T16:34:08.992Z,11.66
2022-11-29T16:36:36.958Z,11.47
2022-11-29T16:39:08.908Z,11.43
2022-11-29T16:41:39.009Z,11.39
2022-11-29T16:44:27.752Z,11.38
2022-11-29T16:47:12.191Z,11.36
2022-11-29T16:49:39.892Z,11.34
2022-11-29T16:52:24.815Z,11.33
2022-11-29T16:54:53.999Z,11.20
2022-11-29T16:57:22.464Z,11.22
2022-11-29T16:59:50.465Z,11.21
2022-11-29T17:02:18.550Z,11.11
2022-11-29T17:04:46.567Z,11.10
2022-11-29T17:07:18.107Z,11.12
2022-11-29T17:09:45.969Z,11.10
2022-11-29T17:12:15.519Z,11.00
2022-11-29T17:14:43.872Z,10.96
2022-11-29T17:17:15.131Z,10.96
2022-11-29T17:19:42.866Z,10.77
2022-11-29T17:22:10.637Z,10.67
2022-11-29T17:24:42.323Z,10.62
2022-11-29T17:27:15.536Z,10.40
2022-11-29T17:29:43.331Z,10.39
2022-11-29T17:32:11.054Z,10.42
2022-11-29T17:34:38.926Z,10.43
2022-11-29T17:37:06.612Z,10.12
2022-11-29T17:39:34.492Z,9.94
2022-11-29T17:42:02.215Z,10.01
2022-11-29T17:44:33.913Z,10.11
2022-11-29T17:47:01.896Z,10.17
2022-11-29T17:49:29.720Z,10.21
2022-11-29T17:51:57.608Z,10.23
2022-11-29T17:54:25.697Z,10.30
2022-11-29T17:56:53.600Z,10.34
2022-11-29T17:59:21.287Z,10.38
2022-11-29T18:01:50.488Z,10.37
2022-11-29T18:04:18.462Z,10.34
2022-11-29T18:06:49.808Z,10.27
2022-11-29T18:09:18.651Z,9.77
2022-11-29T18:11:49.406Z,9.63
2022-11-29T18:14:20.347Z,9.63
2022-11-29T18:16:48.292Z,9.66
2022-11-29T18:19:19.333Z,9.75
2022-11-29T18:21:47.877Z,9.79
2022-11-29T18:24:16.243Z,9.65
2022-11-29T18:26:44.560Z,9.56
2022-11-29T18:29:12.371Z,9.46
2022-11-29T18:31:42.377Z,9.48
2022-11-29T18:34:12.890Z,9.44
2022-11-29T18:36:44.012Z,9.38
2022-11-29T18:39:14.907Z,9.42
2022-11-29T18:41:43.751Z,9.53
2022-11-29T18:44:13.713Z,9.60
2022-11-29T18:46:43.840Z,9.45
2022-11-29T18:49:13.189Z,9.30
2022-11-29T18:51:44.718Z,9.28
2022-11-29T18:54:13.823Z,9.15
2022-11-29T18:56:42.330Z,9.24
2022-11-29T18:59:11.239Z,9.28
2022-11-29T19:01:42.430Z,9.23
2022-11-29T19:04:12.491Z,9.27
2022-11-29T19:06:40.737Z,9.23
2022-11-29T19:09:13.272Z,9.37
2022-11-29T19:11:41.218Z,9.36
2022-11-29T19:14:12.377Z,9.22
2022-11-29T19:16:42.439Z,9.20
2022-11-29T19:19:10.932Z,9.16
2022-11-29T19:21:40.126Z,9.27
2022-11-29T19:24:14.837Z,9.21
2022-11-29T19:26:44.299Z,9.14
2022-11-29T19:29:12.676Z,8.87
2022-11-29T19:31:40.515Z,8.73
2022-11-29T19:34:08.268Z,8.74
2022-11-29T19:36:37.296Z,8.67
2022-11-29T19:39:05.660Z,8.68
2022-11-29T19:41:36.528Z,8.64
2022-11-29T19:44:06.623Z,8.75
2022-11-29T19:46:36.520Z,8.35
2022-11-29T19:49:05.663Z,8.25
2022-11-29T19:51:33.894Z,8.30
2022-11-29T19:54:03.308Z,8.28
2022-11-29T19:56:32.312Z,8.24
2022-11-29T19:59:01.508Z,8.16
2022-11-29T20:01:39.358Z,8.20
2022-11-29T20:04:09.561Z,8.19
2022-11-29T20:06:37.436Z,8.06
2022-11-29T20:09:06.354Z,8.06
2022-11-29T20:11:34.149Z,8.05
2022-11-29T20:14:05.339Z,7.98
2022-11-29T20:16:33.969Z,7.91
2022-11-29T20:19:02.100Z,7.99
2022-11-29T20:21:32.224Z,7.96
2022-11-29T20:24:02.204Z,8.06
2022-11-29T20:26:31.826Z,7.98
2022-11-29T20:28:59.856Z,8.06
2022-11-29T20:31:29.537Z,7.99
2022-11-29T20:33:58.291Z,8.13
2022-11-29T20:36:40.882Z,7.99
2022-11-29T20:39:19.134Z,7.88
2022-11-29T20:41:57.826Z,7.81
2022-11-29T20:44:37.588Z,7.76
2022-11-29T20:47:15.262Z,7.72
2022-11-29T20:49:43.519Z,7.69
2022-11-29T20:52:18.305Z,7.51
2022-11-29T20:54:46.161Z,7.60
2022-11-29T20:57:14.069Z,7.58
2022-11-29T20:59:41.808Z,7.66
2022-11-29T21:02:10.887Z,7.49
2022-11-29T21:04:38.608Z,7.35
2022-11-29T21:07:06.381Z,7.36
2022-11-29T21:09:34.104Z,7.59
2022-11-29T21:12:02.465Z,7.63
2022-11-29T21:14:30.977Z,7.67
2022-11-29T21:16:59.247Z,7.62
2022-11-29T21:19:29.541Z,7.65
2022-11-29T21:22:06.363Z,7.77
2022-11-29T21:24:45.986Z,7.91
2022-11-29T21:27:18.650Z,7.93
2022-11-29T21:29:47.036Z,7.90
2022-11-29T21:32:22.180Z,7.51
2022-11-29T21:34:51.440Z,7.48
2022-11-29T21:37:21.675Z,7.21
2022-11-29T21:39:52.202Z,7.06
2022-11-29T21:42:20.081Z,7.18
2022-11-29T21:44:48.213Z,7.21
2022-11-29T21:47:16.340Z,7.01
2022-11-29T21:49:44.036Z,6.95
2022-11-29T21:52:16.507Z,7.01
2022-11-29T21:54:48.952Z,6.97
2022-11-29T21:57:16.873Z,7.21
2022-11-29T21:59:44.582Z,7.12
2022-11-29T22:02:12.495Z,7.03
2022-11-29T22:04:40.405Z,6.87
2022-11-29T22:07:08.136Z,6.73
2022-11-29T22:09:37.369Z,6.93
2022-11-29T22:12:25.762Z,7.15
2022-11-29T22:14:53.068Z,7.17
2022-11-29T22:17:20.851Z,6.80
2022-11-29T22:19:48.668Z,6.94
2022-11-29T22:22:16.483Z,6.88
2022-11-29T22:24:45.936Z,6.74
2022-11-29T22:27:13.810Z,6.94
2022-11-29T22:29:41.522Z,7.28
2022-11-29T22:32:09.278Z,7.36
2022-11-29T22:34:37.019Z,7.12
2022-11-29T22:37:04.707Z,6.99
2022-11-29T22:39:32.531Z,6.89
2022-11-29T22:42:01.600Z,6.68
2022-11-29T22:44:30.114Z,6.85
2022-11-29T22:46:58.052Z,6.92
2022-11-29T22:49:26.032Z,6.87
2022-11-29T22:51:54.931Z,6.70
2022-11-29T22:54:22.757Z,6.69
2022-11-29T22:56:50.454Z,6.89
2022-11-29T22:59:19.531Z,6.80
2022-11-29T23:01:47.327Z,6.85
2022-11-29T23:04:15.657Z,7.00
2022-11-29T23:06:44.738Z,7.31
2022-11-29T23:09:15.956Z,7.51
2022-11-29T23:11:44.299Z,7.49
2022-11-29T23:14:12.556Z,7.69
2022-11-29T23:16:41.885Z,7.43
2022-11-29T23:19:10.340Z,7.36
2022-11-29T23:21:40.001Z,7.53
2022-11-29T23:24:08.640Z,7.76
2022-11-29T23:26:40.114Z,7.60
2022-11-29T23:29:10.037Z,7.57
2022-11-29T23:31:38.163Z,7.84
2022-11-29T23:34:07.675Z,7.68
2022-11-29T23:36:36.486Z,7.97
2022-11-29T23:39:04.256Z,8.21
2022-11-29T23:41:32.007Z,8.22
2022-11-29T23:43:59.954Z,8.16
2022-11-29T23:46:27.659Z,8.23
2022-11-29T23:48:55.572Z,8.25
2022-11-29T23:51:24.729Z,8.23
2022-11-29T23:53:53.039Z,7.98
2022-11-29T23:56:22.010Z,8.21
2022-11-29T23:58:50.279Z,8.06
